sensor_id;sensor_type;location;lat;lon;timestamp;temperature;humidity
14585;DHT22;7379;51.506;11.876;2024-01-06T00:02:19;6.90;79.40
14585;DHT22;7379;51.506;11.876;2024-01-06T00:04:46;6.90;79.30
14585;DHT22;7379;51.506;11.876;2024-01-06T00:07:12;6.90;79.30
14585;DHT22;7379;51.506;11.876;2024-01-06T00:09:40;6.90;79.40
14585;DHT22;7379;51.506;11.876;2024-01-06T00:12:07;6.80;79.20
14585;DHT22;7379;51.506;11.876;2024-01-06T00:14:33;6.80;79.20
14585;DHT22;7379;51.506;11.876;2024-01-06T00:17:01;6.80;79.20
14585;DHT22;7379;51.506;11.876;2024-01-06T00:19:28;6.80;79.20
14585;DHT22;7379;51.506;11.876;2024-01-06T00:21:55;6.80;79.20
14585;DHT22;7379;51.506;11.876;2024-01-06T00:24:22;6.80;79.20
14585;DHT22;7379;51.506;11.876;2024-01-06T00:26:48;6.80;79.20
14585;DHT22;7379;51.506;11.876;2024-01-06T00:29:15;6.80;79.20
14585;DHT22;7379;51.506;11.876;2024-01-06T00:31:42;6.80;79.20
14585;DHT22;7379;51.506;11.876;2024-01-06T00:34:10;6.80;79.20
14585;DHT22;7379;51.506;11.876;2024-01-06T00:36:36;6.80;79.20
14585;DHT22;7379;51.506;11.876;2024-01-06T00:39:03;6.80;79.20
14585;DHT22;7379;51.506;11.876;2024-01-06T00:41:30;6.80;79.20
14585;DHT22;7379;51.506;11.876;2024-01-06T00:43:57;6.80;79.20
14585;DHT22;7379;51.506;11.876;2024-01-06T00:46:23;6.80;79.20
14585;DHT22;7379;51.506;11.876;2024-01-06T00:48:50;6.80;79.20
14585;DHT22;7379;51.506;11.876;2024-01-06T00:51:18;6.70;79.10
14585;DHT22;7379;51.506;11.876;2024-01-06T00:53:45;6.70;79.20
14585;DHT22;7379;51.506;11.876;2024-01-06T00:56:12;6.70;79.20
14585;DHT22;7379;51.506;11.876;2024-01-06T00:58:39;6.70;79.10
14585;DHT22;7379;51.506;11.876;2024-01-06T01:01:06;6.70;79.10
14585;DHT22;7379;51.506;11.876;2024-01-06T01:03:33;6.70;79.90
14585;DHT22;7379;51.506;11.876;2024-01-06T01:05:59;6.70;79.10
14585;DHT22;7379;51.506;11.876;2024-01-06T01:08:27;6.70;79.10
14585;DHT22;7379;51.506;11.876;2024-01-06T01:10:54;6.70;79.20
14585;DHT22;7379;51.506;11.876;2024-01-06T01:13:21;6.70;79.10
14585;DHT22;7379;51.506;11.876;2024-01-06T01:15:48;6.70;79.20
14585;DHT22;7379;51.506;11.876;2024-01-06T01:18:15;6.70;79.20
14585;DHT22;7379;51.506;11.876;2024-01-06T01:20:41;6.70;79.10
14585;DHT22;7379;51.506;11.876;2024-01-06T01:23:08;6.70;79.10
14585;DHT22;7379;51.506;11.876;2024-01-06T01:25:36;6.70;79.10
14585;DHT22;7379;51.506;11.876;2024-01-06T01:28:04;6.70;79.20
14585;DHT22;7379;51.506;11.876;2024-01-06T01:30:31;6.70;79.10
14585;DHT22;7379;51.506;11.876;2024-01-06T01:32:58;6.70;79.10
14585;DHT22;7379;51.506;11.876;2024-01-06T01:35:25;6.70;79.10
14585;DHT22;7379;51.506;11.876;2024-01-06T01:37:52;6.60;79.00
14585;DHT22;7379;51.506;11.876;2024-01-06T01:40:18;6.60;79.00
14585;DHT22;7379;51.506;11.876;2024-01-06T01:42:46;6.60;79.00
14585;DHT22;7379;51.506;11.876;2024-01-06T01:45:13;6.60;79.00
14585;DHT22;7379;51.506;11.876;2024-01-06T01:47:40;6.60;79.00
14585;DHT22;7379;51.506;11.876;2024-01-06T01:50:07;6.60;79.00
14585;DHT22;7379;51.506;11.876;2024-01-06T01:52:35;6.60;79.00
14585;DHT22;7379;51.506;11.876;2024-01-06T01:55:04;6.60;79.00
14585;DHT22;7379;51.506;11.876;2024-01-06T01:57:31;6.60;79.00
14585;DHT22;7379;51.506;11.876;2024-01-06T02:00:00;6.60;79.70
14585;DHT22;7379;51.506;11.876;2024-01-06T02:02:28;6.60;78.90
14585;DHT22;7379;51.506;11.876;2024-01-06T02:04:56;6.60;79.00
14585;DHT22;7379;51.506;11.876;2024-01-06T02:07:22;6.60;79.00
14585;DHT22;7379;51.506;11.876;2024-01-06T02:09:49;6.60;79.00
14585;DHT22;7379;51.506;11.876;2024-01-06T02:12:16;6.60;78.90
14585;DHT22;7379;51.506;11.876;2024-01-06T02:14:43;6.50;78.80
14585;DHT22;7379;51.506;11.876;2024-01-06T02:17:11;6.50;78.80
14585;DHT22;7379;51.506;11.876;2024-01-06T02:19:38;6.60;78.90
14585;DHT22;7379;51.506;11.876;2024-01-06T02:22:06;6.50;78.80
14585;DHT22;7379;51.506;11.876;2024-01-06T02:24:32;6.50;78.80
14585;DHT22;7379;51.506;11.876;2024-01-06T02:26:59;6.50;78.80
14585;DHT22;7379;51.506;11.876;2024-01-06T02:29:26;6.50;78.80
14585;DHT22;7379;51.506;11.876;2024-01-06T02:31:52;6.50;78.80
14585;DHT22;7379;51.506;11.876;2024-01-06T02:34:19;6.50;78.80
14585;DHT22;7379;51.506;11.876;2024-01-06T02:36:46;6.50;78.80
14585;DHT22;7379;51.506;11.876;2024-01-06T02:39:14;6.50;78.80
14585;DHT22;7379;51.506;11.876;2024-01-06T02:41:41;6.50;78.70
14585;DHT22;7379;51.506;11.876;2024-01-06T02:44:07;6.50;78.80
14585;DHT22;7379;51.506;11.876;2024-01-06T02:46:34;6.40;78.70
14585;DHT22;7379;51.506;11.876;2024-01-06T02:49:01;6.40;78.70
14585;DHT22;7379;51.506;11.876;2024-01-06T02:51:28;6.40;78.70
14585;DHT22;7379;51.506;11.876;2024-01-06T02:53:54;6.40;78.70
14585;DHT22;7379;51.506;11.876;2024-01-06T02:56:22;6.40;78.70
14585;DHT22;7379;51.506;11.876;2024-01-06T02:58:49;6.40;78.70
14585;DHT22;7379;51.506;11.876;2024-01-06T03:01:16;6.40;78.60
14585;DHT22;7379;51.506;11.876;2024-01-06T03:03:43;6.40;78.70
14585;DHT22;7379;51.506;11.876;2024-01-06T03:06:10;6.40;78.70
14585;DHT22;7379;51.506;11.876;2024-01-06T03:08:37;6.40;78.60
14585;DHT22;7379;51.506;11.876;2024-01-06T03:11:03;6.40;78.60
14585;DHT22;7379;51.506;11.876;2024-01-06T03:13:32;6.40;78.60
14585;DHT22;7379;51.506;11.876;2024-01-06T03:16:03;6.40;78.40
14585;DHT22;7379;51.506;11.876;2024-01-06T03:18:30;6.40;78.40
14585;DHT22;7379;51.506;11.876;2024-01-06T03:20:56;6.40;78.30
14585;DHT22;7379;51.506;11.876;2024-01-06T03:23:23;6.30;78.20
14585;DHT22;7379;51.506;11.876;2024-01-06T03:25:50;6.30;78.20
14585;DHT22;7379;51.506;11.876;2024-01-06T03:28:16;6.40;78.40
14585;DHT22;7379;51.506;11.876;2024-01-06T03:30:44;6.30;78.20
14585;DHT22;7379;51.506;11.876;2024-01-06T03:33:11;6.30;78.20
14585;DHT22;7379;51.506;11.876;2024-01-06T03:35:38;6.30;78.20
14585;DHT22;7379;51.506;11.876;2024-01-06T03:38:05;6.30;78.20
14585;DHT22;7379;51.506;11.876;2024-01-06T03:40:32;6.30;78.20
14585;DHT22;7379;51.506;11.876;2024-01-06T03:42:58;6.30;78.20
14585;DHT22;7379;51.506;11.876;2024-01-06T03:45:25;6.30;78.20
14585;DHT22;7379;51.506;11.876;2024-01-06T03:47:53;6.30;78.30
14585;DHT22;7379;51.506;11.876;2024-01-06T03:50:20;6.20;78.20
14585;DHT22;7379;51.506;11.876;2024-01-06T03:52:47;6.20;78.20
14585;DHT22;7379;51.506;11.876;2024-01-06T03:55:14;6.20;78.20
14585;DHT22;7379;51.506;11.876;2024-01-06T03:57:41;6.30;78.40
14585;DHT22;7379;51.506;11.876;2024-01-06T04:00:09;6.20;78.30
14585;DHT22;7379;51.506;11.876;2024-01-06T04:02:35;6.20;78.30
14585;DHT22;7379;51.506;11.876;2024-01-06T04:05:04;6.20;78.30
14585;DHT22;7379;51.506;11.876;2024-01-06T04:07:31;6.20;78.30
14585;DHT22;7379;51.506;11.876;2024-01-06T04:09:58;6.20;78.30
14585;DHT22;7379;51.506;11.876;2024-01-06T04:12:24;6.20;78.30
14585;DHT22;7379;51.506;11.876;2024-01-06T04:14:51;6.20;78.30
14585;DHT22;7379;51.506;11.876;2024-01-06T04:17:18;6.20;78.30
14585;DHT22;7379;51.506;11.876;2024-01-06T04:19:45;6.20;78.30
14585;DHT22;7379;51.506;11.876;2024-01-06T04:22:13;6.20;78.30
14585;DHT22;7379;51.506;11.876;2024-01-06T04:24:40;6.20;78.30
14585;DHT22;7379;51.506;11.876;2024-01-06T04:27:06;6.20;78.30
14585;DHT22;7379;51.506;11.876;2024-01-06T04:29:33;6.10;78.20
14585;DHT22;7379;51.506;11.876;2024-01-06T04:32:00;6.10;78.90
14585;DHT22;7379;51.506;11.876;2024-01-06T04:34:27;6.10;78.20
14585;DHT22;7379;51.506;11.876;2024-01-06T04:36:53;6.10;78.20
14585;DHT22;7379;51.506;11.876;2024-01-06T04:39:21;6.10;78.20
14585;DHT22;7379;51.506;11.876;2024-01-06T04:41:49;6.10;78.10
14585;DHT22;7379;51.506;11.876;2024-01-06T04:44:16;6.10;78.10
14585;DHT22;7379;51.506;11.876;2024-01-06T04:46:43;6.10;78.20
14585;DHT22;7379;51.506;11.876;2024-01-06T04:49:10;6.10;78.10
14585;DHT22;7379;51.506;11.876;2024-01-06T04:51:37;6.10;78.10
14585;DHT22;7379;51.506;11.876;2024-01-06T04:54:03;6.10;78.10
14585;DHT22;7379;51.506;11.876;2024-01-06T04:56:31;6.10;78.10
14585;DHT22;7379;51.506;11.876;2024-01-06T04:58:58;6.10;78.10
14585;DHT22;7379;51.506;11.876;2024-01-06T05:01:25;6.10;78.10
14585;DHT22;7379;51.506;11.876;2024-01-06T05:03:52;6.10;78.10
14585;DHT22;7379;51.506;11.876;2024-01-06T05:06:18;6.10;78.10
14585;DHT22;7379;51.506;11.876;2024-01-06T05:08:45;6.10;78.10
14585;DHT22;7379;51.506;11.876;2024-01-06T05:11:12;6.10;78.20
14585;DHT22;7379;51.506;11.876;2024-01-06T05:13:40;6.10;78.10
14585;DHT22;7379;51.506;11.876;2024-01-06T05:16:07;6.00;78.00
14585;DHT22;7379;51.506;11.876;2024-01-06T05:18:34;6.10;78.20
14585;DHT22;7379;51.506;11.876;2024-01-06T05:21:02;6.10;78.20
14585;DHT22;7379;51.506;11.876;2024-01-06T05:23:29;6.10;78.10
14585;DHT22;7379;51.506;11.876;2024-01-06T05:25:56;6.00;78.00
14585;DHT22;7379;51.506;11.876;2024-01-06T05:28:22;6.00;78.00
14585;DHT22;7379;51.506;11.876;2024-01-06T05:30:50;6.00;78.00
14585;DHT22;7379;51.506;11.876;2024-01-06T05:33:17;6.10;78.10
14585;DHT22;7379;51.506;11.876;2024-01-06T05:35:44;6.10;78.10
14585;DHT22;7379;51.506;11.876;2024-01-06T05:38:12;6.10;78.10
14585;DHT22;7379;51.506;11.876;2024-01-06T05:40:38;6.10;78.10
14585;DHT22;7379;51.506;11.876;2024-01-06T05:43:05;6.00;78.00
14585;DHT22;7379;51.506;11.876;2024-01-06T05:45:32;6.10;78.10
14585;DHT22;7379;51.506;11.876;2024-01-06T05:48:00;6.10;78.20
14585;DHT22;7379;51.506;11.876;2024-01-06T05:50:27;6.00;78.00
14585;DHT22;7379;51.506;11.876;2024-01-06T05:52:53;6.10;78.10
14585;DHT22;7379;51.506;11.876;2024-01-06T05:55:21;6.10;78.10
14585;DHT22;7379;51.506;11.876;2024-01-06T05:57:48;6.10;78.10
14585;DHT22;7379;51.506;11.876;2024-01-06T06:00:15;6.00;78.10
14585;DHT22;7379;51.506;11.876;2024-01-06T06:02:42;6.00;78.00
14585;DHT22;7379;51.506;11.876;2024-01-06T06:05:10;6.00;78.00
14585;DHT22;7379;51.506;11.876;2024-01-06T06:07:37;6.00;78.00
14585;DHT22;7379;51.506;11.876;2024-01-06T06:10:06;6.00;78.00
14585;DHT22;7379;51.506;11.876;2024-01-06T06:12:34;6.00;78.00
14585;DHT22;7379;51.506;11.876;2024-01-06T06:15:00;6.00;78.00
14585;DHT22;7379;51.506;11.876;2024-01-06T06:17:29;6.00;78.00
14585;DHT22;7379;51.506;11.876;2024-01-06T06:19:56;6.00;78.00
14585;DHT22;7379;51.506;11.876;2024-01-06T06:22:24;6.00;78.00
14585;DHT22;7379;51.506;11.876;2024-01-06T06:24:52;6.00;78.00
14585;DHT22;7379;51.506;11.876;2024-01-06T06:27:18;6.00;78.00
14585;DHT22;7379;51.506;11.876;2024-01-06T06:29:45;6.00;78.00
14585;DHT22;7379;51.506;11.876;2024-01-06T06:32:12;6.00;78.00
14585;DHT22;7379;51.506;11.876;2024-01-06T06:34:39;5.90;77.90
14585;DHT22;7379;51.506;11.876;2024-01-06T06:37:06;5.90;77.90
14585;DHT22;7379;51.506;11.876;2024-01-06T06:39:34;5.90;77.90
14585;DHT22;7379;51.506;11.876;2024-01-06T06:42:01;5.90;77.80
14585;DHT22;7379;51.506;11.876;2024-01-06T06:44:28;5.90;77.80
14585;DHT22;7379;51.506;11.876;2024-01-06T06:46:55;5.90;77.80
14585;DHT22;7379;51.506;11.876;2024-01-06T06:49:22;5.90;77.80
14585;DHT22;7379;51.506;11.876;2024-01-06T06:51:49;5.90;77.80
14585;DHT22;7379;51.506;11.876;2024-01-06T06:54:16;5.90;77.80
14585;DHT22;7379;51.506;11.876;2024-01-06T06:56:44;5.90;77.80
14585;DHT22;7379;51.506;11.876;2024-01-06T06:59:10;5.90;77.80
14585;DHT22;7379;51.506;11.876;2024-01-06T07:01:37;5.90;77.70
14585;DHT22;7379;51.506;11.876;2024-01-06T07:04:04;5.90;77.70
14585;DHT22;7379;51.506;11.876;2024-01-06T07:06:31;5.90;77.70
14585;DHT22;7379;51.506;11.876;2024-01-06T07:08:58;5.90;77.70
14585;DHT22;7379;51.506;11.876;2024-01-06T07:11:25;5.90;77.70
14585;DHT22;7379;51.506;11.876;2024-01-06T07:13:54;5.80;77.60
14585;DHT22;7379;51.506;11.876;2024-01-06T07:16:21;5.80;77.60
14585;DHT22;7379;51.506;11.876;2024-01-06T07:18:47;5.80;77.60
14585;DHT22;7379;51.506;11.876;2024-01-06T07:21:14;5.80;77.60
14585;DHT22;7379;51.506;11.876;2024-01-06T07:23:41;5.80;77.60
14585;DHT22;7379;51.506;11.876;2024-01-06T07:26:08;5.80;77.60
14585;DHT22;7379;51.506;11.876;2024-01-06T07:28:34;5.80;77.60
14585;DHT22;7379;51.506;11.876;2024-01-06T07:31:03;5.80;77.60
14585;DHT22;7379;51.506;11.876;2024-01-06T07:33:30;5.80;77.60
14585;DHT22;7379;51.506;11.876;2024-01-06T07:35:56;5.80;77.60
14585;DHT22;7379;51.506;11.876;2024-01-06T07:38:23;5.80;77.60
14585;DHT22;7379;51.506;11.876;2024-01-06T07:40:50;5.80;77.60
14585;DHT22;7379;51.506;11.876;2024-01-06T07:43:16;5.80;77.60
14585;DHT22;7379;51.506;11.876;2024-01-06T07:45:43;5.80;77.60
14585;DHT22;7379;51.506;11.876;2024-01-06T07:48:11;5.80;77.60
14585;DHT22;7379;51.506;11.876;2024-01-06T07:50:38;5.80;77.60
14585;DHT22;7379;51.506;11.876;2024-01-06T07:53:05;5.80;77.60
14585;DHT22;7379;51.506;11.876;2024-01-06T07:55:31;5.80;77.60
14585;DHT22;7379;51.506;11.876;2024-01-06T07:57:58;5.80;77.60
14585;DHT22;7379;51.506;11.876;2024-01-06T08:00:25;5.80;77.60
14585;DHT22;7379;51.506;11.876;2024-01-06T08:02:52;5.80;77.60
14585;DHT22;7379;51.506;11.876;2024-01-06T08:05:20;5.80;77.60
14585;DHT22;7379;51.506;11.876;2024-01-06T08:07:46;5.80;77.60
14585;DHT22;7379;51.506;11.876;2024-01-06T08:10:13;5.80;77.60
14585;DHT22;7379;51.506;11.876;2024-01-06T08:12:40;5.80;77.60
14585;DHT22;7379;51.506;11.876;2024-01-06T08:15:07;5.80;77.60
14585;DHT22;7379;51.506;11.876;2024-01-06T08:17:34;5.80;77.60
14585;DHT22;7379;51.506;11.876;2024-01-06T08:20:01;5.80;77.60
14585;DHT22;7379;51.506;11.876;2024-01-06T08:22:30;5.80;77.60
14585;DHT22;7379;51.506;11.876;2024-01-06T08:24:57;5.80;77.60
14585;DHT22;7379;51.506;11.876;2024-01-06T08:27:23;5.80;77.60
14585;DHT22;7379;51.506;11.876;2024-01-06T08:29:50;5.80;77.60
14585;DHT22;7379;51.506;11.876;2024-01-06T08:32:17;5.80;77.60
14585;DHT22;7379;51.506;11.876;2024-01-06T08:34:43;5.80;77.60
14585;DHT22;7379;51.506;11.876;2024-01-06T08:37:10;5.80;77.60
14585;DHT22;7379;51.506;11.876;2024-01-06T08:39:38;5.80;77.60
14585;DHT22;7379;51.506;11.876;2024-01-06T08:42:06;5.80;77.60
14585;DHT22;7379;51.506;11.876;2024-01-06T08:44:33;5.80;77.60
14585;DHT22;7379;51.506;11.876;2024-01-06T08:47:00;5.80;77.60
14585;DHT22;7379;51.506;11.876;2024-01-06T08:49:28;5.80;77.60
14585;DHT22;7379;51.506;11.876;2024-01-06T08:51:55;5.80;77.60
14585;DHT22;7379;51.506;11.876;2024-01-06T08:54:21;5.80;77.60
14585;DHT22;7379;51.506;11.876;2024-01-06T08:56:49;5.80;77.60
14585;DHT22;7379;51.506;11.876;2024-01-06T08:59:16;5.80;77.60
14585;DHT22;7379;51.506;11.876;2024-01-06T09:01:43;5.80;77.60
14585;DHT22;7379;51.506;11.876;2024-01-06T09:04:10;5.80;77.70
14585;DHT22;7379;51.506;11.876;2024-01-06T09:06:38;5.80;77.70
14585;DHT22;7379;51.506;11.876;2024-01-06T09:09:05;5.80;77.70
14585;DHT22;7379;51.506;11.876;2024-01-06T09:11:32;5.80;77.70
14585;DHT22;7379;51.506;11.876;2024-01-06T09:14:00;5.80;77.70
14585;DHT22;7379;51.506;11.876;2024-01-06T09:16:27;5.80;77.60
14585;DHT22;7379;51.506;11.876;2024-01-06T09:18:53;5.90;77.80
14585;DHT22;7379;51.506;11.876;2024-01-06T09:21:20;5.80;77.70
14585;DHT22;7379;51.506;11.876;2024-01-06T09:23:47;5.80;77.70
14585;DHT22;7379;51.506;11.876;2024-01-06T09:26:13;5.80;77.70
14585;DHT22;7379;51.506;11.876;2024-01-06T09:28:41;5.80;77.90
14585;DHT22;7379;51.506;11.876;2024-01-06T09:31:09;5.80;77.70
14585;DHT22;7379;51.506;11.876;2024-01-06T09:33:36;5.90;77.80
14585;DHT22;7379;51.506;11.876;2024-01-06T09:36:04;5.80;77.70
14585;DHT22;7379;51.506;11.876;2024-01-06T09:38:31;5.90;77.80
14585;DHT22;7379;51.506;11.876;2024-01-06T09:40:58;5.90;77.80
14585;DHT22;7379;51.506;11.876;2024-01-06T09:43:25;5.90;77.80
14585;DHT22;7379;51.506;11.876;2024-01-06T09:45:56;5.90;77.80
14585;DHT22;7379;51.506;11.876;2024-01-06T09:48:29;5.80;77.70
14585;DHT22;7379;51.506;11.876;2024-01-06T09:50:56;5.90;77.80
14585;DHT22;7379;51.506;11.876;2024-01-06T09:53:32;5.80;77.70
14585;DHT22;7379;51.506;11.876;2024-01-06T09:56:00;5.90;77.80
14585;DHT22;7379;51.506;11.876;2024-01-06T09:58:27;5.90;77.80
14585;DHT22;7379;51.506;11.876;2024-01-06T10:00:59;5.90;77.80
14585;DHT22;7379;51.506;11.876;2024-01-06T10:03:28;5.90;77.80
14585;DHT22;7379;51.506;11.876;2024-01-06T10:05:55;5.90;77.80
14585;DHT22;7379;51.506;11.876;2024-01-06T10:08:26;5.90;77.80
14585;DHT22;7379;51.506;11.876;2024-01-06T10:10:52;5.90;77.80
14585;DHT22;7379;51.506;11.876;2024-01-06T10:13:19;5.90;77.80
14585;DHT22;7379;51.506;11.876;2024-01-06T10:15:46;5.90;77.80
14585;DHT22;7379;51.506;11.876;2024-01-06T10:18:13;5.90;77.80
14585;DHT22;7379;51.506;11.876;2024-01-06T10:20:41;5.90;77.80
14585;DHT22;7379;51.506;11.876;2024-01-06T10:23:08;5.90;77.80
14585;DHT22;7379;51.506;11.876;2024-01-06T10:25:35;5.90;77.80
14585;DHT22;7379;51.506;11.876;2024-01-06T10:28:02;5.90;77.80
14585;DHT22;7379;51.506;11.876;2024-01-06T10:30:29;5.90;77.80
14585;DHT22;7379;51.506;11.876;2024-01-06T10:32:56;5.90;77.80
14585;DHT22;7379;51.506;11.876;2024-01-06T10:35:24;5.90;77.80
14585;DHT22;7379;51.506;11.876;2024-01-06T10:37:53;5.90;77.90
14585;DHT22;7379;51.506;11.876;2024-01-06T10:40:20;5.90;77.90
14585;DHT22;7379;51.506;11.876;2024-01-06T10:42:47;5.90;77.90
14585;DHT22;7379;51.506;11.876;2024-01-06T10:45:14;6.00;78.00
14585;DHT22;7379;51.506;11.876;2024-01-06T10:47:42;6.00;78.00
14585;DHT22;7379;51.506;11.876;2024-01-06T10:50:10;6.00;78.00
14585;DHT22;7379;51.506;11.876;2024-01-06T10:52:38;6.00;78.00
14585;DHT22;7379;51.506;11.876;2024-01-06T10:55:07;6.00;78.00
14585;DHT22;7379;51.506;11.876;2024-01-06T10:57:34;6.00;78.00
14585;DHT22;7379;51.506;11.876;2024-01-06T11:00:01;6.00;78.00
14585;DHT22;7379;51.506;11.876;2024-01-06T11:02:27;6.00;78.00
14585;DHT22;7379;51.506;11.876;2024-01-06T11:04:54;6.00;78.00
14585;DHT22;7379;51.506;11.876;2024-01-06T11:07:22;6.00;78.00
14585;DHT22;7379;51.506;11.876;2024-01-06T11:09:52;6.00;78.00
14585;DHT22;7379;51.506;11.876;2024-01-06T11:12:22;6.00;78.00
14585;DHT22;7379;51.506;11.876;2024-01-06T11:14:49;6.00;78.00
14585;DHT22;7379;51.506;11.876;2024-01-06T11:17:49;6.00;78.00
14585;DHT22;7379;51.506;11.876;2024-01-06T11:20:16;6.00;78.00
14585;DHT22;7379;51.506;11.876;2024-01-06T11:22:42;6.00;78.10
14585;DHT22;7379;51.506;11.876;2024-01-06T11:25:14;6.00;78.10
14585;DHT22;7379;51.506;11.876;2024-01-06T11:27:44;6.00;78.10
14585;DHT22;7379;51.506;11.876;2024-01-06T11:30:19;6.00;78.10
14585;DHT22;7379;51.506;11.876;2024-01-06T11:32:46;6.00;78.20
14585;DHT22;7379;51.506;11.876;2024-01-06T11:35:14;6.00;78.20
14585;DHT22;7379;51.506;11.876;2024-01-06T11:37:54;6.10;78.30
14585;DHT22;7379;51.506;11.876;2024-01-06T11:40:24;6.00;78.20
14585;DHT22;7379;51.506;11.876;2024-01-06T11:42:59;6.00;78.30
14585;DHT22;7379;51.506;11.876;2024-01-06T11:45:27;6.00;78.20
14585;DHT22;7379;51.506;11.876;2024-01-06T11:47:55;6.00;78.20
14585;DHT22;7379;51.506;11.876;2024-01-06T11:50:24;6.10;78.40
14585;DHT22;7379;51.506;11.876;2024-01-06T11:52:51;6.10;78.40
14585;DHT22;7379;51.506;11.876;2024-01-06T11:55:19;6.00;78.30
14585;DHT22;7379;51.506;11.876;2024-01-06T11:57:45;6.10;78.40
14585;DHT22;7379;51.506;11.876;2024-01-06T12:00:15;6.10;78.40
14585;DHT22;7379;51.506;11.876;2024-01-06T12:02:42;6.10;78.40
14585;DHT22;7379;51.506;11.876;2024-01-06T12:05:12;6.10;78.40
14585;DHT22;7379;51.506;11.876;2024-01-06T12:07:40;6.10;78.40
14585;DHT22;7379;51.506;11.876;2024-01-06T12:10:08;6.10;78.40
14585;DHT22;7379;51.506;11.876;2024-01-06T12:12:35;6.10;78.40
14585;DHT22;7379;51.506;11.876;2024-01-06T12:15:03;6.10;78.40
14585;DHT22;7379;51.506;11.876;2024-01-06T12:17:31;6.10;78.40
14585;DHT22;7379;51.506;11.876;2024-01-06T12:19:58;6.10;78.40
14585;DHT22;7379;51.506;11.876;2024-01-06T12:22:25;6.10;78.40
14585;DHT22;7379;51.506;11.876;2024-01-06T12:24:52;6.10;78.40
14585;DHT22;7379;51.506;11.876;2024-01-06T12:27:19;6.10;78.40
14585;DHT22;7379;51.506;11.876;2024-01-06T12:29:47;6.10;78.40
14585;DHT22;7379;51.506;11.876;2024-01-06T12:32:13;6.10;78.40
14585;DHT22;7379;51.506;11.876;2024-01-06T12:34:41;6.10;78.40
14585;DHT22;7379;51.506;11.876;2024-01-06T12:37:08;6.10;78.40
14585;DHT22;7379;51.506;11.876;2024-01-06T12:39:35;6.10;78.40
14585;DHT22;7379;51.506;11.876;2024-01-06T12:42:02;6.10;78.40
14585;DHT22;7379;51.506;11.876;2024-01-06T12:44:29;6.10;78.40
14585;DHT22;7379;51.506;11.876;2024-01-06T12:46:58;6.10;78.40
14585;DHT22;7379;51.506;11.876;2024-01-06T12:49:24;6.10;78.40
14585;DHT22;7379;51.506;11.876;2024-01-06T12:51:53;6.10;78.40
14585;DHT22;7379;51.506;11.876;2024-01-06T12:54:19;6.10;78.40
14585;DHT22;7379;51.506;11.876;2024-01-06T12:56:46;6.10;78.40
14585;DHT22;7379;51.506;11.876;2024-01-06T12:59:13;6.10;78.40
14585;DHT22;7379;51.506;11.876;2024-01-06T13:01:40;6.10;78.40
14585;DHT22;7379;51.506;11.876;2024-01-06T13:04:06;6.10;78.40
14585;DHT22;7379;51.506;11.876;2024-01-06T13:06:34;6.10;78.40
14585;DHT22;7379;51.506;11.876;2024-01-06T13:09:02;6.10;78.40
14585;DHT22;7379;51.506;11.876;2024-01-06T13:11:32;6.10;78.40
14585;DHT22;7379;51.506;11.876;2024-01-06T13:13:59;6.10;78.40
14585;DHT22;7379;51.506;11.876;2024-01-06T13:16:27;6.10;78.40
14585;DHT22;7379;51.506;11.876;2024-01-06T13:18:53;6.10;78.40
14585;DHT22;7379;51.506;11.876;2024-01-06T13:21:20;6.10;78.40
14585;DHT22;7379;51.506;11.876;2024-01-06T13:23:47;6.10;78.40
14585;DHT22;7379;51.506;11.876;2024-01-06T13:26:15;6.10;78.40
14585;DHT22;7379;51.506;11.876;2024-01-06T13:28:42;6.10;78.40
14585;DHT22;7379;51.506;11.876;2024-01-06T13:31:09;6.10;78.40
14585;DHT22;7379;51.506;11.876;2024-01-06T13:33:35;6.10;78.40
14585;DHT22;7379;51.506;11.876;2024-01-06T13:36:03;6.10;78.40
14585;DHT22;7379;51.506;11.876;2024-01-06T13:38:30;6.10;78.40
14585;DHT22;7379;51.506;11.876;2024-01-06T13:40:56;6.10;78.40
14585;DHT22;7379;51.506;11.876;2024-01-06T13:43:24;6.10;78.50
14585;DHT22;7379;51.506;11.876;2024-01-06T13:45:51;6.10;78.50
14585;DHT22;7379;51.506;11.876;2024-01-06T13:48:18;6.10;78.40
14585;DHT22;7379;51.506;11.876;2024-01-06T13:50:45;6.10;78.50
14585;DHT22;7379;51.506;11.876;2024-01-06T13:53:12;6.10;78.50
14585;DHT22;7379;51.506;11.876;2024-01-06T13:55:39;6.10;78.50
14585;DHT22;7379;51.506;11.876;2024-01-06T13:58:05;6.10;78.50
14585;DHT22;7379;51.506;11.876;2024-01-06T14:00:36;6.10;78.50
14585;DHT22;7379;51.506;11.876;2024-01-06T14:03:03;6.10;78.50
14585;DHT22;7379;51.506;11.876;2024-01-06T14:05:32;6.10;78.50
14585;DHT22;7379;51.506;11.876;2024-01-06T14:08:00;6.10;78.50
14585;DHT22;7379;51.506;11.876;2024-01-06T14:10:27;6.10;78.50
14585;DHT22;7379;51.506;11.876;2024-01-06T14:12:53;6.10;78.50
14585;DHT22;7379;51.506;11.876;2024-01-06T14:15:20;6.10;78.50
14585;DHT22;7379;51.506;11.876;2024-01-06T14:17:48;6.10;78.60
14585;DHT22;7379;51.506;11.876;2024-01-06T14:20:17;6.10;78.60
14585;DHT22;7379;51.506;11.876;2024-01-06T14:22:44;6.10;78.60
14585;DHT22;7379;51.506;11.876;2024-01-06T14:25:11;6.10;78.60
14585;DHT22;7379;51.506;11.876;2024-01-06T14:27:38;6.00;78.50
14585;DHT22;7379;51.506;11.876;2024-01-06T14:30:06;6.10;78.60
14585;DHT22;7379;51.506;11.876;2024-01-06T14:32:35;6.00;78.50
14585;DHT22;7379;51.506;11.876;2024-01-06T14:35:03;6.00;78.50
14585;DHT22;7379;51.506;11.876;2024-01-06T14:37:31;6.00;78.50
14585;DHT22;7379;51.506;11.876;2024-01-06T14:40:06;6.00;78.50
14585;DHT22;7379;51.506;11.876;2024-01-06T14:42:33;6.00;78.50
14585;DHT22;7379;51.506;11.876;2024-01-06T14:45:01;6.00;78.50
14585;DHT22;7379;51.506;11.876;2024-01-06T14:47:28;6.00;78.50
14585;DHT22;7379;51.506;11.876;2024-01-06T14:49:54;6.00;78.50
14585;DHT22;7379;51.506;11.876;2024-01-06T14:52:22;6.00;78.50
14585;DHT22;7379;51.506;11.876;2024-01-06T14:54:49;6.00;78.50
14585;DHT22;7379;51.506;11.876;2024-01-06T14:57:16;6.00;78.40
14585;DHT22;7379;51.506;11.876;2024-01-06T14:59:43;6.00;78.50
14585;DHT22;7379;51.506;11.876;2024-01-06T15:02:09;6.00;78.50
14585;DHT22;7379;51.506;11.876;2024-01-06T15:04:37;6.00;78.50
14585;DHT22;7379;51.506;11.876;2024-01-06T15:07:04;6.00;78.50
14585;DHT22;7379;51.506;11.876;2024-01-06T15:09:32;6.00;78.50
14585;DHT22;7379;51.506;11.876;2024-01-06T15:11:58;6.00;78.50
14585;DHT22;7379;51.506;11.876;2024-01-06T15:14:25;6.00;78.50
14585;DHT22;7379;51.506;11.876;2024-01-06T15:16:52;6.00;78.50
14585;DHT22;7379;51.506;11.876;2024-01-06T15:19:18;6.00;78.50
14585;DHT22;7379;51.506;11.876;2024-01-06T15:21:47;6.00;78.50
14585;DHT22;7379;51.506;11.876;2024-01-06T15:24:15;6.00;78.50
14585;DHT22;7379;51.506;11.876;2024-01-06T15:26:44;6.00;78.50
14585;DHT22;7379;51.506;11.876;2024-01-06T15:29:11;6.00;78.50
14585;DHT22;7379;51.506;11.876;2024-01-06T15:31:38;6.00;79.20
14585;DHT22;7379;51.506;11.876;2024-01-06T15:34:04;6.00;78.50
14585;DHT22;7379;51.506;11.876;2024-01-06T15:36:31;5.90;78.40
14585;DHT22;7379;51.506;11.876;2024-01-06T15:38:59;6.00;78.50
14585;DHT22;7379;51.506;11.876;2024-01-06T15:41:26;6.00;78.50
14585;DHT22;7379;51.506;11.876;2024-01-06T15:43:55;5.90;78.40
14585;DHT22;7379;51.506;11.876;2024-01-06T15:46:22;6.00;78.50